Time;durP1;ratioP1;P1;durP2;ratioP2;P2;SDS_P1;SDS_P2;PMS_P1;PMS_P2;Temp;Humidity;BMP_temperature;BMP_pressure;BME280_temperature;BME280_humidity;BME280_pressure;Samples;Min_cycle;Max_cycle;Signal;HPM_P1;HPM_P2
2022/04/13 00:00:10;;;;;;;8.23;7.43;;;12.30;91.00;;;;;;5082203;28;20448;-77
2022/04/13 00:02:39;;;;;;;8.87;7.97;;;12.30;91.00;;;;;;5074999;28;20504;-78
2022/04/13 00:05:08;;;;;;;8.83;7.93;;;12.30;91.00;;;;;;5073264;28;21007;-77
2022/04/13 00:07:36;;;;;;;9.20;8.30;;;12.30;91.00;;;;;;5073221;28;20827;-78
2022/04/13 00:10:06;;;;;;;8.97;8.13;;;12.30;91.10;;;;;;5072912;28;20445;-77
2022/04/13 00:12:35;;;;;;;8.33;7.60;;;12.30;91.10;;;;;;5073046;28;20453;-77
2022/04/13 00:15:07;;;;;;;8.60;7.70;;;12.30;91.20;;;;;;5073456;28;20455;-78
2022/04/13 00:17:36;;;;;;;9.13;8.23;;;12.30;91.20;;;;;;5074428;28;20479;-77
2022/04/13 00:20:05;;;;;;;8.57;7.73;;;12.20;91.10;;;;;;5079856;28;20549;-77
2022/04/13 00:22:33;;;;;;;9.83;8.17;;;12.20;91.20;;;;;;5093220;28;20459;-77
2022/04/13 00:25:01;;;;;;;11.63;7.83;;;12.20;91.20;;;;;;5093011;28;20436;-77
2022/04/13 00:27:29;;;;;;;8.30;7.60;;;12.20;91.20;;;;;;5092880;28;20461;-77
2022/04/13 00:29:58;;;;;;;9.10;8.20;;;12.20;91.30;;;;;;5094377;28;20436;-77
2022/04/13 00:32:27;;;;;;;9.03;8.13;;;12.20;91.30;;;;;;5092858;28;21024;-77
2022/04/13 00:34:57;;;;;;;7.93;7.20;;;12.20;91.40;;;;;;5092686;28;20535;-77
2022/04/13 00:37:25;;;;;;;8.63;7.67;;;12.10;91.40;;;;;;5093568;28;20468;-77
2022/04/13 00:39:53;;;;;;;9.10;8.30;;;12.10;91.40;;;;;;5089067;28;20464;-77
2022/04/13 00:42:21;;;;;;;9.00;8.20;;;12.10;91.40;;;;;;5073766;28;20492;-78
2022/04/13 00:44:49;;;;;;;8.20;7.40;;;12.10;91.40;;;;;;5087591;28;20440;-78
2022/04/13 00:47:18;;;;;;;11.80;8.20;;;12.10;91.50;;;;;;5095007;28;20500;-77
2022/04/13 00:49:48;;;;;;;8.10;7.30;;;12.10;91.50;;;;;;5083808;28;20826;-77
2022/04/13 00:52:19;;;;;;;8.60;7.90;;;12.10;91.60;;;;;;5073621;28;20459;-77
2022/04/13 00:54:49;;;;;;;8.13;7.33;;;12.00;91.60;;;;;;5072355;28;20568;-77
2022/04/13 00:57:21;;;;;;;7.83;7.03;;;12.00;91.60;;;;;;5082500;28;20479;-77
2022/04/13 00:59:53;;;;;;;8.30;7.50;;;12.00;91.60;;;;;;5088195;28;20829;-77
2022/04/13 01:02:24;;;;;;;8.43;7.23;;;12.00;91.70;;;;;;5073999;28;20441;-78
2022/04/13 01:04:55;;;;;;;7.70;6.93;;;12.00;91.70;;;;;;5073704;28;21064;-77
2022/04/13 01:07:24;;;;;;;8.00;7.20;;;12.00;91.80;;;;;;5071702;28;20469;-77
2022/04/13 01:09:54;;;;;;;8.30;7.33;;;12.00;91.80;;;;;;5071051;28;20974;-77
2022/04/13 01:12:22;;;;;;;8.07;7.27;;;12.00;91.80;;;;;;5072249;28;20522;-77
2022/04/13 01:14:51;;;;;;;7.77;7.10;;;11.90;91.80;;;;;;5072070;28;20452;-77
2022/04/13 01:17:19;;;;;;;8.60;7.40;;;11.90;91.80;;;;;;5072182;28;20992;-77
2022/04/13 01:19:47;;;;;;;8.00;7.20;;;11.90;91.90;;;;;;5073746;28;20450;-77
2022/04/13 01:22:21;;;;;;;7.90;6.97;;;11.90;91.90;;;;;;5072300;28;20537;-79
2022/04/13 01:24:50;;;;;;;8.83;7.20;;;11.90;92.00;;;;;;5072235;28;20499;-78
2022/04/13 01:27:18;;;;;;;7.73;7.13;;;11.90;92.00;;;;;;5072187;28;20475;-78
2022/04/13 01:29:48;;;;;;;7.67;7.07;;;11.90;92.10;;;;;;5077271;28;20500;-77
2022/04/13 01:32:16;;;;;;;8.10;7.40;;;11.90;92.10;;;;;;5072023;28;20502;-78
2022/04/13 01:34:48;;;;;;;8.73;7.90;;;11.80;92.10;;;;;;5074838;28;20456;-77
2022/04/13 01:37:18;;;;;;;7.63;6.93;;;11.90;92.20;;;;;;5092124;28;20456;-77
2022/04/13 01:39:47;;;;;;;7.73;7.03;;;11.80;92.10;;;;;;5092000;28;20953;-77
2022/04/13 01:42:16;;;;;;;7.80;7.07;;;11.80;92.20;;;;;;5092061;28;20441;-77
2022/04/13 01:44:45;;;;;;;7.87;7.00;;;11.80;92.20;;;;;;5084381;28;20446;-77
2022/04/13 01:47:13;;;;;;;8.13;7.43;;;11.80;92.20;;;;;;5072839;28;20460;-78
2022/04/13 01:49:42;;;;;;;7.67;6.87;;;11.80;92.20;;;;;;5086806;28;20464;-77
2022/04/13 01:52:12;;;;;;;8.30;6.20;;;11.80;92.30;;;;;;5087054;28;20483;-77
2022/04/13 01:54:40;;;;;;;7.77;7.07;;;11.80;92.30;;;;;;5095991;28;20443;-77
2022/04/13 01:57:10;;;;;;;7.57;6.77;;;11.80;92.30;;;;;;5095701;28;20578;-77
2022/04/13 01:59:38;;;;;;;7.60;6.90;;;11.80;92.30;;;;;;5095932;28;20795;-77
2022/04/13 02:02:06;;;;;;;7.90;7.20;;;11.80;92.30;;;;;;5095810;28;20476;-77
2022/04/13 02:04:35;;;;;;;7.90;7.10;;;11.80;92.40;;;;;;5079778;28;20506;-77
2022/04/13 02:07:04;;;;;;;6.97;6.27;;;11.80;92.40;;;;;;5086386;28;21022;-77
2022/04/13 02:09:32;;;;;;;8.60;7.70;;;11.70;92.30;;;;;;5089721;28;20489;-77
2022/04/13 02:12:01;;;;;;;7.60;7.00;;;11.70;92.40;;;;;;5078368;28;20958;-77
2022/04/13 02:14:30;;;;;;;8.03;7.10;;;11.70;92.40;;;;;;5074942;28;20540;-77
2022/04/13 02:16:59;;;;;;;7.73;6.93;;;11.70;92.40;;;;;;5074931;28;20567;-77
2022/04/13 02:19:27;;;;;;;8.13;7.40;;;11.70;92.40;;;;;;5075314;28;20449;-77
2022/04/13 02:21:56;;;;;;;7.50;6.80;;;11.60;92.40;;;;;;5075075;28;20456;-77
2022/04/13 02:24:24;;;;;;;7.77;7.10;;;11.60;92.40;;;;;;5075071;28;20441;-78
2022/04/13 02:26:52;;;;;;;7.63;6.83;;;11.60;92.50;;;;;;5078868;28;20834;-77
2022/04/13 02:29:20;;;;;;;8.30;7.47;;;11.50;92.40;;;;;;5074906;28;20504;-78
2022/04/13 02:31:50;;;;;;;7.50;6.60;;;11.50;92.50;;;;;;5075036;28;20500;-77
2022/04/13 02:34:18;;;;;;;7.80;7.00;;;11.50;92.50;;;;;;5074964;28;20445;-77
2022/04/13 02:36:46;;;;;;;7.73;7.03;;;11.50;92.60;;;;;;5096208;28;20464;-77
2022/04/13 02:39:15;;;;;;;9.57;8.27;;;11.40;92.50;;;;;;5089800;28;20483;-78
2022/04/13 02:41:43;;;;;;;8.17;7.40;;;11.40;92.60;;;;;;5074865;28;20532;-77
2022/04/13 02:44:11;;;;;;;9.07;7.50;;;11.40;92.60;;;;;;5076115;28;20437;-77
2022/04/13 02:46:39;;;;;;;8.17;7.37;;;11.30;92.60;;;;;;5076212;28;20575;-77
2022/04/13 02:49:09;;;;;;;8.77;6.40;;;11.30;92.60;;;;;;5074593;28;20499;-78
2022/04/13 02:51:37;;;;;;;7.27;6.57;;;11.30;92.60;;;;;;5073354;28;20475;-77
2022/04/13 02:54:06;;;;;;;7.20;6.50;;;11.20;92.60;;;;;;5074600;28;20444;-77
2022/04/13 02:56:34;;;;;;;8.10;6.87;;;11.20;92.70;;;;;;5074452;28;20585;-78
2022/04/13 02:59:02;;;;;;;7.80;7.10;;;11.20;92.70;;;;;;5075258;28;20516;-77
2022/04/13 03:01:31;;;;;;;7.70;7.00;;;11.10;92.70;;;;;;5075764;28;20487;-77
2022/04/13 03:04:02;;;;;;;8.10;7.40;;;11.10;92.70;;;;;;5079034;28;20498;-77
2022/04/13 03:06:31;;;;;;;9.03;7.53;;;11.10;92.80;;;;;;5092622;28;20894;-77
2022/04/13 03:09:00;;;;;;;8.60;7.70;;;11.00;92.80;;;;;;5087174;28;20578;-78
2022/04/13 03:11:28;;;;;;;9.97;8.30;;;11.00;92.90;;;;;;5094798;28;20445;-77
2022/04/13 03:13:56;;;;;;;8.50;6.73;;;11.00;92.90;;;;;;5094583;28;20476;-78
2022/04/13 03:16:24;;;;;;;7.80;7.10;;;10.90;92.90;;;;;;5073622;28;20489;-77
2022/04/13 03:18:52;;;;;;;9.70;8.70;;;10.90;92.90;;;;;;5077031;28;20531;-77
2022/04/13 03:21:21;;;;;;;9.13;8.23;;;10.80;92.90;;;;;;5094338;28;20452;-77
2022/04/13 03:23:50;;;;;;;8.97;8.27;;;10.80;93.00;;;;;;5094295;28;20440;-77
2022/04/13 03:26:18;;;;;;;8.17;7.37;;;10.80;93.00;;;;;;5094219;28;21070;-77
2022/04/13 03:28:47;;;;;;;9.67;8.87;;;10.70;93.00;;;;;;5097232;28;20452;-77
2022/04/13 03:31:16;;;;;;;10.17;9.17;;;10.70;93.10;;;;;;5076238;28;20508;-77
2022/04/13 03:33:44;;;;;;;12.20;11.00;;;10.70;93.20;;;;;;5074010;28;20548;-77
2022/04/13 03:36:16;;;;;;;9.27;8.37;;;10.70;93.30;;;;;;5074984;28;20471;-77
2022/04/13 03:38:44;;;;;;;20.60;18.53;;;10.70;93.30;;;;;;5083988;28;20543;-77
2022/04/13 03:41:14;;;;;;;14.63;13.23;;;10.60;93.30;;;;;;5082337;28;20438;-77
2022/04/13 03:43:42;;;;;;;8.90;8.00;;;10.60;93.40;;;;;;5073685;28;20441;-77
2022/04/13 03:46:10;;;;;;;8.17;7.47;;;10.60;93.50;;;;;;5073583;28;20472;-77
2022/04/13 03:48:38;;;;;;;8.23;7.50;;;10.60;93.60;;;;;;5073641;28;20798;-78
2022/04/13 03:51:07;;;;;;;10.70;7.50;;;10.60;93.60;;;;;;5073789;28;20476;-77
2022/04/13 03:53:35;;;;;;;9.53;8.53;;;10.50;93.90;;;;;;5076737;28;20443;-77
2022/04/13 03:56:06;;;;;;;8.50;7.70;;;10.50;93.70;;;;;;5073074;28;20487;-78
2022/04/13 03:58:35;;;;;;;8.60;7.73;;;10.50;93.70;;;;;;5081762;28;20449;-78
2022/04/13 04:01:06;;;;;;;8.93;8.13;;;10.50;93.70;;;;;;5077382;28;20456;-77
2022/04/13 04:03:35;;;;;;;8.83;7.93;;;10.40;93.80;;;;;;5074748;28;20465;-77
2022/04/13 04:06:04;;;;;;;8.70;7.90;;;10.40;93.80;;;;;;5079729;28;20468;-77
2022/04/13 04:08:32;;;;;;;10.00;9.10;;;10.40;93.90;;;;;;5095236;28;20458;-78
2022/04/13 04:11:00;;;;;;;9.93;7.97;;;10.40;93.90;;;;;;5095131;28;20460;-77
2022/04/13 04:13:28;;;;;;;10.40;9.40;;;10.40;94.00;;;;;;5093710;28;20440;-77
2022/04/13 04:15:59;;;;;;;9.17;8.37;;;10.40;94.00;;;;;;5093153;28;20464;-77
2022/04/13 04:18:27;;;;;;;8.63;7.63;;;10.30;94.00;;;;;;5094419;28;20424;-78
2022/04/13 04:20:55;;;;;;;9.43;8.60;;;10.30;94.00;;;;;;5093264;28;20436;-77
2022/04/13 04:23:24;;;;;;;9.20;8.40;;;10.30;94.00;;;;;;5093148;28;21011;-77
2022/04/13 04:25:52;;;;;;;11.50;9.20;;;10.30;94.10;;;;;;5094198;28;20464;-77
2022/04/13 04:28:20;;;;;;;10.27;8.93;;;10.30;94.10;;;;;;5093069;28;20543;-77
2022/04/13 04:30:48;;;;;;;9.93;9.00;;;10.20;94.10;;;;;;5092879;28;20622;-77
2022/04/13 04:33:18;;;;;;;13.57;12.37;;;10.20;94.20;;;;;;5094134;28;20440;-77
2022/04/13 04:35:47;;;;;;;12.63;11.43;;;10.20;94.30;;;;;;5092828;28;20501;-77
2022/04/13 04:38:15;;;;;;;12.10;11.00;;;10.10;94.30;;;;;;5094084;28;20428;-77
2022/04/13 04:40:43;;;;;;;11.20;10.20;;;10.10;94.40;;;;;;5093619;28;20453;-77
2022/04/13 04:43:12;;;;;;;9.63;8.63;;;10.20;94.50;;;;;;5092692;28;20440;-77
2022/04/13 04:45:40;;;;;;;11.40;10.30;;;10.10;94.50;;;;;;5092738;28;20459;-77
2022/04/13 04:48:08;;;;;;;9.93;9.13;;;10.10;94.50;;;;;;5092581;28;20448;-77
2022/04/13 04:50:38;;;;;;;10.33;9.33;;;10.10;94.50;;;;;;5093821;28;20992;-77
2022/04/13 04:53:06;;;;;;;10.00;9.10;;;10.10;94.60;;;;;;5092577;28;20531;-77
2022/04/13 04:55:34;;;;;;;8.90;8.10;;;10.10;94.70;;;;;;5092439;28;20460;-77
2022/04/13 04:58:03;;;;;;;9.40;8.60;;;10.00;94.70;;;;;;5092418;28;20451;-77
2022/04/13 05:00:35;;;;;;;10.07;9.17;;;10.00;94.70;;;;;;5092550;28;20441;-77
2022/04/13 05:03:03;;;;;;;9.10;8.30;;;10.00;94.70;;;;;;5092502;28;20447;-77
2022/04/13 05:05:33;;;;;;;10.40;9.40;;;10.00;94.80;;;;;;5093590;28;20436;-77
2022/04/13 05:08:04;;;;;;;9.13;8.33;;;10.00;94.80;;;;;;5093628;28;20436;-77
2022/04/13 05:10:32;;;;;;;11.10;10.10;;;10.00;94.90;;;;;;5093863;28;20818;-77
2022/04/13 05:13:02;;;;;;;11.40;9.90;;;10.00;94.90;;;;;;5092247;28;20459;-77
2022/04/13 05:15:31;;;;;;;11.37;10.30;;;9.90;95.40;;;;;;5092302;28;20444;-77
2022/04/13 05:18:00;;;;;;;11.77;10.67;;;9.90;95.50;;;;;;5092274;28;20444;-77
2022/04/13 05:20:28;;;;;;;11.13;10.03;;;9.90;95.60;;;;;;5092102;28;20444;-77
2022/04/13 05:22:56;;;;;;;11.10;10.03;;;9.90;95.60;;;;;;5091643;28;21032;-77
2022/04/13 05:25:26;;;;;;;10.70;9.70;;;9.90;95.70;;;;;;5092184;28;20452;-79
2022/04/13 05:27:54;;;;;;;10.70;9.80;;;10.00;95.60;;;;;;5092124;28;20483;-77
2022/04/13 05:30:22;;;;;;;10.40;9.50;;;9.90;96.10;;;;;;5093359;28;20626;-77
2022/04/13 05:32:53;;;;;;;12.13;10.40;;;10.00;95.40;;;;;;5092061;28;20949;-78
2022/04/13 05:35:21;;;;;;;11.10;10.10;;;10.00;95.50;;;;;;5092351;28;20996;-77
2022/04/13 05:37:49;;;;;;;10.77;9.73;;;10.00;95.60;;;;;;5091993;28;20479;-77
2022/04/13 05:40:17;;;;;;;11.37;10.27;;;10.00;95.70;;;;;;5092026;28;20444;-77
2022/04/13 05:42:47;;;;;;;11.50;10.30;;;10.00;95.80;;;;;;5093566;28;20440;-77
2022/04/13 05:45:16;;;;;;;12.30;11.10;;;10.00;95.90;;;;;;5092002;28;20444;-77
2022/04/13 05:47:45;;;;;;;12.10;10.90;;;10.10;96.00;;;;;;5092002;28;20495;-77
2022/04/13 05:50:14;;;;;;;11.77;10.80;;;10.10;96.10;;;;;;5093128;28;20860;-77
2022/04/13 05:52:43;;;;;;;11.40;10.50;;;10.20;96.20;;;;;;5093153;28;20440;-78
2022/04/13 05:55:13;;;;;;;11.67;10.57;;;10.20;96.30;;;;;;5091906;28;20815;-77
2022/04/13 05:57:41;;;;;;;12.67;10.17;;;10.30;96.40;;;;;;5091811;28;20973;-77
2022/04/13 06:00:13;;;;;;;18.33;10.17;;;10.40;96.60;;;;;;5093068;28;20450;-77
2022/04/13 06:02:42;;;;;;;15.67;10.20;;;10.40;96.60;;;;;;5091996;28;20436;-77
2022/04/13 06:05:11;;;;;;;14.50;10.87;;;10.40;96.70;;;;;;5093090;28;20929;-77
2022/04/13 06:07:40;;;;;;;14.27;11.20;;;10.50;96.80;;;;;;5093170;28;20513;-77
2022/04/13 06:10:09;;;;;;;15.97;10.30;;;10.60;96.90;;;;;;5091760;28;20950;-77
2022/04/13 06:12:37;;;;;;;11.57;10.47;;;10.70;97.10;;;;;;5091791;28;20468;-77
2022/04/13 06:15:08;;;;;;;10.10;9.03;;;10.80;97.10;;;;;;5093479;28;20437;-77
2022/04/13 06:17:38;;;;;;;10.27;9.00;;;10.90;97.20;;;;;;5091797;28;20460;-77
2022/04/13 06:20:08;;;;;;;10.63;9.43;;;11.00;97.30;;;;;;5091980;28;20428;-77
2022/04/13 06:22:39;;;;;;;9.00;8.20;;;11.10;97.40;;;;;;5091868;28;20452;-77
2022/04/13 06:25:08;;;;;;;10.53;9.63;;;11.20;97.50;;;;;;5091887;28;20802;-77
2022/04/13 06:27:36;;;;;;;9.87;8.77;;;11.30;97.50;;;;;;5093991;28;20492;-78
2022/04/13 06:30:06;;;;;;;10.23;9.17;;;11.40;97.60;;;;;;5091655;28;20961;-77
2022/04/13 06:32:35;;;;;;;10.03;9.13;;;11.40;97.60;;;;;;5091524;28;21065;-77
2022/04/13 06:35:05;;;;;;;9.30;8.40;;;11.50;97.60;;;;;;5095926;28;20476;-77
2022/04/13 06:37:36;;;;;;;9.97;9.00;;;11.60;97.70;;;;;;5095343;28;21004;-77
2022/04/13 06:40:06;;;;;;;10.10;9.10;;;11.60;97.70;;;;;;5096476;28;20440;-77
2022/04/13 06:42:34;;;;;;;9.97;9.17;;;11.70;97.80;;;;;;5095364;28;20445;-77
2022/04/13 06:45:02;;;;;;;9.03;8.27;;;11.70;97.80;;;;;;5095072;28;21022;-77
2022/04/13 06:47:31;;;;;;;10.43;9.33;;;11.80;97.90;;;;;;5094943;28;20522;-77
2022/04/13 06:49:59;;;;;;;10.07;9.17;;;11.90;97.90;;;;;;5095195;28;20442;-77
2022/04/13 06:52:32;;;;;;;10.30;9.30;;;11.90;98.00;;;;;;5095315;28;20553;-77
2022/04/13 06:55:00;;;;;;;9.70;8.80;;;12.00;98.10;;;;;;5096458;28;20433;-77
2022/04/13 06:57:28;;;;;;;10.63;9.43;;;12.10;98.20;;;;;;5094834;28;20467;-77
2022/04/13 07:00:01;;;;;;;12.07;9.07;;;12.30;98.40;;;;;;5096178;28;20420;-77
2022/04/13 07:02:29;;;;;;;11.30;10.23;;;12.40;98.40;;;;;;5094822;28;20475;-77
2022/04/13 07:04:57;;;;;;;11.30;10.10;;;12.50;98.50;;;;;;5096176;28;20974;-77
2022/04/13 07:07:26;;;;;;;9.63;8.73;;;12.60;98.50;;;;;;5094516;28;20547;-77
2022/04/13 07:09:55;;;;;;;10.17;9.10;;;12.70;98.60;;;;;;5095388;28;20838;-77
2022/04/13 07:12:23;;;;;;;10.80;9.73;;;12.80;98.60;;;;;;5094665;28;20464;-77
2022/04/13 07:14:51;;;;;;;11.97;9.00;;;12.90;98.70;;;;;;5094602;28;20453;-77
2022/04/13 07:17:19;;;;;;;17.43;15.80;;;13.00;98.70;;;;;;5095559;28;20467;-77
2022/04/13 07:19:47;;;;;;;10.80;9.80;;;13.10;98.80;;;;;;5094297;28;20445;-77
2022/04/13 07:22:16;;;;;;;10.40;9.40;;;13.20;98.90;;;;;;5095632;28;20433;-77
2022/04/13 07:24:44;;;;;;;11.23;10.17;;;13.30;99.00;;;;;;5095974;28;20441;-77
2022/04/13 07:27:13;;;;;;;12.03;10.70;;;13.50;99.00;;;;;;5094303;28;20578;-77
2022/04/13 07:29:41;;;;;;;15.00;12.97;;;13.50;99.00;;;;;;5095489;28;20929;-77
2022/04/13 07:32:09;;;;;;;13.50;10.13;;;13.60;99.00;;;;;;5094713;28;20503;-76
2022/04/13 07:34:38;;;;;;;16.97;14.70;;;13.70;99.10;;;;;;5096725;28;20475;-77
2022/04/13 07:37:06;;;;;;;11.30;10.37;;;13.80;99.20;;;;;;5095204;28;20479;-77
2022/04/13 07:39:35;;;;;;;10.60;9.60;;;13.90;99.20;;;;;;5094376;28;20451;-77
2022/04/13 07:42:03;;;;;;;10.80;9.90;;;13.90;99.20;;;;;;5094176;28;20476;-77
2022/04/13 07:44:33;;;;;;;11.60;10.40;;;14.00;99.30;;;;;;5093943;28;20813;-77
2022/04/13 07:47:22;;;;;;;11.47;10.27;;;14.10;99.40;;;;;;5094264;28;20464;-77
2022/04/13 07:49:50;;;;;;;11.43;10.40;;;14.20;99.40;;;;;;5094204;28;20450;-77
2022/04/13 07:52:19;;;;;;;11.00;9.93;;;14.30;99.40;;;;;;5094011;28;20900;-77
2022/04/13 07:54:47;;;;;;;11.80;10.80;;;14.40;99.40;;;;;;5094108;28;20453;-77
2022/04/13 07:57:15;;;;;;;11.47;10.37;;;14.50;99.40;;;;;;5093691;28;20988;-77
2022/04/13 07:59:45;;;;;;;10.73;9.73;;;14.70;99.50;;;;;;5095447;28;20433;-77
2022/04/13 08:02:14;;;;;;;11.70;10.60;;;14.80;99.50;;;;;;5095261;28;20439;-77
2022/04/13 08:04:43;;;;;;;13.03;10.73;;;15.00;99.70;;;;;;5093887;28;20448;-77
2022/04/13 08:07:11;;;;;;;11.60;10.40;;;15.20;99.70;;;;;;5093952;28;20959;-77
2022/04/13 08:09:39;;;;;;;12.50;10.33;;;15.50;99.80;;;;;;5095169;28;20436;-77
2022/04/13 08:12:08;;;;;;;10.90;10.00;;;15.60;99.70;;;;;;5093802;28;20474;-77
2022/04/13 08:14:37;;;;;;;11.80;10.60;;;15.80;99.80;;;;;;5093752;28;20464;-77
2022/04/13 08:17:06;;;;;;;11.27;9.90;;;16.10;99.90;;;;;;5093805;28;20503;-77
2022/04/13 08:19:34;;;;;;;12.47;11.30;;;16.20;99.90;;;;;;5095333;28;20466;-77
2022/04/13 08:22:03;;;;;;;12.47;11.37;;;16.40;99.90;;;;;;5093599;28;20423;-77
2022/04/13 08:24:31;;;;;;;15.93;14.43;;;16.60;99.90;;;;;;5093860;28;20519;-77
2022/04/13 08:26:59;;;;;;;13.60;12.00;;;16.80;99.90;;;;;;5093422;28;20487;-77
2022/04/13 08:29:28;;;;;;;15.20;13.80;;;17.00;99.90;;;;;;5095059;28;20903;-77
2022/04/13 08:31:56;;;;;;;15.47;13.90;;;17.20;99.80;;;;;;5093259;28;20474;-77
2022/04/13 08:34:25;;;;;;;15.83;13.70;;;17.40;99.80;;;;;;5094784;28;20442;-77
2022/04/13 08:36:54;;;;;;;16.47;13.20;;;17.50;99.70;;;;;;5093194;28;20468;-77
2022/04/13 08:39:22;;;;;;;15.10;13.57;;;17.60;99.60;;;;;;5094717;28;20828;-77
2022/04/13 08:41:52;;;;;;;15.47;13.90;;;17.70;99.60;;;;;;5093367;28;20498;-77
2022/04/13 08:44:28;;;;;;;15.13;13.33;;;17.70;99.50;;;;;;5093135;28;20446;-77
2022/04/13 08:47:01;;;;;;;16.27;14.67;;;17.80;99.50;;;;;;5094474;28;20434;-77
2022/04/13 08:49:34;;;;;;;15.97;14.03;;;17.90;99.80;;;;;;5094503;28;20419;-77
2022/04/13 08:52:05;;;;;;;16.93;14.57;;;18.00;99.40;;;;;;5092890;28;21010;-77
2022/04/13 08:54:41;;;;;;;16.20;13.93;;;18.10;99.40;;;;;;5092602;28;20433;-77
2022/04/13 08:57:11;;;;;;;19.47;14.83;;;18.10;99.30;;;;;;5091644;28;20988;-77
2022/04/13 09:00:03;;;;;;;16.80;14.80;;;18.20;99.30;;;;;;5094107;28;20483;-77
2022/04/13 09:02:54;;;;;;;16.80;14.40;;;18.40;99.40;;;;;;5092488;28;20541;-77
2022/04/13 09:05:25;;;;;;;21.47;14.10;;;18.60;99.30;;;;;;5076408;28;20854;-77
2022/04/13 09:08:05;;;;;;;18.47;14.60;;;18.70;99.20;;;;;;5092372;28;20474;-77
2022/04/13 09:10:33;;;;;;;16.60;14.90;;;18.80;99.20;;;;;;5092425;28;20436;-77
2022/04/13 09:13:02;;;;;;;17.23;15.40;;;19.00;99.20;;;;;;5093856;28;20878;-77
2022/04/13 09:15:34;;;;;;;15.43;13.70;;;19.10;99.10;;;;;;5093515;28;20952;-77
2022/04/13 09:18:02;;;;;;;18.77;14.13;;;19.20;99.00;;;;;;5093783;28;20428;-77
2022/04/13 09:20:32;;;;;;;15.77;14.03;;;19.30;98.90;;;;;;5092145;28;20543;-77
2022/04/13 09:23:01;;;;;;;16.60;14.90;;;19.40;98.90;;;;;;5092145;28;20452;-77
2022/04/13 09:25:31;;;;;;;15.93;12.70;;;19.50;98.90;;;;;;5093680;28;20439;-78
2022/04/13 09:28:01;;;;;;;14.97;13.47;;;19.60;98.90;;;;;;5093712;28;20451;-77
2022/04/13 09:30:33;;;;;;;15.37;13.60;;;19.80;99.20;;;;;;5092134;28;20436;-77
2022/04/13 09:33:02;;;;;;;16.70;14.33;;;19.90;98.80;;;;;;5092059;28;20464;-77
2022/04/13 09:35:34;;;;;;;15.50;13.50;;;20.00;98.80;;;;;;5093914;28;20829;-77
2022/04/13 09:38:03;;;;;;;15.80;14.17;;;20.10;98.70;;;;;;5093335;28;20417;-77
2022/04/13 09:40:34;;;;;;;17.60;14.50;;;20.20;98.60;;;;;;5091965;28;20452;-78
2022/04/13 09:43:07;;;;;;;18.23;14.40;;;20.20;98.50;;;;;;5092042;28;20468;-77
2022/04/13 09:45:36;;;;;;;16.23;14.33;;;20.20;98.30;;;;;;5091840;28;20865;-77
2022/04/13 09:48:12;;;;;;;13.60;12.40;;;20.20;98.40;;;;;;5093167;28;20447;-77
2022/04/13 09:50:42;;;;;;;15.53;13.40;;;20.30;98.50;;;;;;5092006;28;20444;-77
2022/04/13 09:53:12;;;;;;;17.07;14.50;;;20.40;98.50;;;;;;5091837;28;20555;-77
2022/04/13 09:55:41;;;;;;;15.43;12.47;;;20.50;98.50;;;;;;5091707;28;20462;-77
2022/04/13 09:58:11;;;;;;;15.50;13.90;;;20.60;98.50;;;;;;5091926;28;20489;-77
2022/04/13 10:00:41;;;;;;;16.47;13.33;;;20.70;98.30;;;;;;5093383;28;20511;-77
2022/04/13 10:03:14;;;;;;;21.33;15.23;;;20.70;98.30;;;;;;5093379;28;20435;-77
2022/04/13 10:05:45;;;;;;;15.47;11.40;;;20.80;98.20;;;;;;5093231;28;20904;-77
2022/04/13 10:08:15;;;;;;;14.03;12.30;;;20.90;98.20;;;;;;5094103;28;20420;-77
2022/04/13 10:10:45;;;;;;;17.40;13.20;;;21.00;98.20;;;;;;5095598;28;20440;-75
2022/04/13 10:13:31;;;;;;;14.73;13.20;;;21.10;98.00;;;;;;5095481;28;20460;-77
2022/04/13 10:16:00;;;;;;;16.93;13.97;;;21.10;97.90;;;;;;5095481;28;20558;-77
2022/04/13 10:18:31;;;;;;;18.33;13.67;;;21.20;97.80;;;;;;5096774;28;20493;-77
2022/04/13 10:21:00;;;;;;;17.37;14.00;;;21.30;97.70;;;;;;5095486;28;21020;-77
2022/04/13 10:23:40;;;;;;;15.77;13.60;;;21.30;97.60;;;;;;5096693;28;20440;-77
2022/04/13 10:26:10;;;;;;;16.77;13.30;;;21.40;97.50;;;;;;5095347;28;20546;-77
2022/04/13 10:28:48;;;;;;;18.97;15.33;;;21.40;97.50;;;;;;5095273;28;20809;-77
2022/04/13 10:31:17;;;;;;;14.70;13.00;;;21.50;97.30;;;;;;5095308;28;20432;-75
2022/04/13 10:33:49;;;;;;;16.23;14.30;;;21.50;97.20;;;;;;5095174;28;20900;-75
2022/04/13 10:36:20;;;;;;;14.97;13.40;;;21.60;97.20;;;;;;5095070;28;20483;-77
2022/04/13 10:38:49;;;;;;;18.47;14.93;;;21.70;97.30;;;;;;5095217;28;20447;-77
2022/04/13 10:41:20;;;;;;;16.90;14.83;;;21.70;97.20;;;;;;5095056;28;20446;-75
2022/04/13 10:43:50;;;;;;;16.57;13.40;;;21.80;97.10;;;;;;5096584;28;20423;-75
2022/04/13 10:46:21;;;;;;;17.97;14.73;;;21.80;97.10;;;;;;5096089;28;20470;-75
2022/04/13 10:49:07;;;;;;;17.33;13.93;;;21.90;96.90;;;;;;5094891;28;20444;-77
2022/04/13 10:51:39;;;;;;;20.83;15.77;;;21.90;96.80;;;;;;5095006;28;20444;-75
2022/04/13 10:54:10;;;;;;;17.87;14.97;;;21.90;97.10;;;;;;5096364;28;20550;-75
2022/04/13 10:56:42;;;;;;;18.10;15.63;;;22.00;97.00;;;;;;5095799;28;20468;-75
2022/04/13 10:59:24;;;;;;;17.33;15.63;;;22.00;96.90;;;;;;5094740;28;20448;-75
2022/04/13 11:01:57;;;;;;;17.03;14.03;;;22.10;97.00;;;;;;5097800;28;20417;-75
2022/04/13 11:04:27;;;;;;;18.43;14.40;;;22.20;97.00;;;;;;5095182;28;20443;-77
2022/04/13 11:06:57;;;;;;;14.27;12.77;;;22.20;97.00;;;;;;5095157;28;20567;-77
2022/04/13 11:09:30;;;;;;;16.03;14.37;;;22.30;97.20;;;;;;5095020;28;20940;-75
2022/04/13 11:12:01;;;;;;;14.63;13.13;;;22.30;96.90;;;;;;5095609;28;20560;-75
2022/04/13 11:14:30;;;;;;;15.27;12.30;;;22.40;96.70;;;;;;5095942;28;20461;-75
2022/04/13 11:17:24;;;;;;;16.30;12.97;;;22.40;96.60;;;;;;5094815;28;20816;-75
2022/04/13 11:19:52;;;;;;;15.50;12.93;;;22.40;96.50;;;;;;5093610;28;20440;-77
2022/04/13 11:22:23;;;;;;;16.80;14.90;;;22.40;96.50;;;;;;5095568;28;20436;-77
2022/04/13 11:24:56;;;;;;;16.60;13.77;;;22.40;96.30;;;;;;5094272;28;20512;-77
2022/04/13 11:27:26;;;;;;;15.40;13.67;;;22.40;96.20;;;;;;5095528;28;20448;-77
2022/04/13 11:30:02;;;;;;;15.23;13.00;;;22.40;96.20;;;;;;5094093;28;20440;-77
2022/04/13 11:32:33;;;;;;;15.40;13.73;;;22.50;96.20;;;;;;5095974;28;20458;-77
2022/04/13 11:35:04;;;;;;;16.37;14.77;;;22.50;96.10;;;;;;5094025;28;20498;-75
2022/04/13 11:37:46;;;;;;;14.70;13.20;;;22.60;96.00;;;;;;5094021;28;20507;-77
2022/04/13 11:40:21;;;;;;;15.43;13.70;;;22.60;96.00;;;;;;5093955;28;21029;-77
2022/04/13 11:42:50;;;;;;;17.20;15.30;;;22.70;96.00;;;;;;5095108;28;20478;-77
2022/04/13 11:45:20;;;;;;;17.17;15.40;;;22.70;95.90;;;;;;5093830;28;20436;-75
2022/04/13 11:47:58;;;;;;;14.37;12.73;;;22.70;95.90;;;;;;5093645;28;20833;-75
2022/04/13 11:50:29;;;;;;;16.30;13.70;;;22.80;95.90;;;;;;5095008;28;20421;-75
2022/04/13 11:53:01;;;;;;;13.83;12.53;;;22.90;95.90;;;;;;5095235;28;20413;-75
2022/04/13 11:55:33;;;;;;;17.47;14.97;;;22.80;95.80;;;;;;5093581;28;20589;-75
2022/04/13 11:58:22;;;;;;;16.20;14.60;;;22.90;95.80;;;;;;5093601;28;20555;-75
2022/04/13 12:01:05;;;;;;;18.70;13.80;;;22.90;95.80;;;;;;5093652;28;20497;-75
2022/04/13 12:03:36;;;;;;;15.87;14.20;;;22.90;95.80;;;;;;5093523;28;20446;-77
2022/04/13 12:06:08;;;;;;;15.87;14.20;;;23.00;95.70;;;;;;5094694;28;20475;-75
2022/04/13 12:08:39;;;;;;;16.30;14.60;;;22.90;95.60;;;;;;5094708;28;20970;-76
2022/04/13 12:11:10;;;;;;;17.23;12.57;;;22.90;95.50;;;;;;5093421;28;20447;-75
2022/04/13 12:13:52;;;;;;;13.10;11.83;;;22.90;95.40;;;;;;5094487;28;20823;-75
2022/04/13 12:16:22;;;;;;;14.63;13.13;;;22.90;95.50;;;;;;5094815;28;20452;-77
2022/04/13 12:18:52;;;;;;;16.07;12.57;;;23.00;95.60;;;;;;5093222;28;20826;-75
2022/04/13 12:21:24;;;;;;;15.40;13.97;;;23.00;95.50;;;;;;5094577;28;20471;-76
2022/04/13 12:23:54;;;;;;;14.63;13.17;;;22.90;95.40;;;;;;5094217;28;20549;-76
2022/04/13 12:26:33;;;;;;;13.40;11.83;;;22.90;95.20;;;;;;5093052;28;20499;-75
2022/04/13 12:29:10;;;;;;;18.80;12.20;;;22.90;95.10;;;;;;5095624;28;20447;-76
2022/04/13 12:31:45;;;;;;;12.83;11.40;;;22.80;95.00;;;;;;5092941;28;20459;-76
2022/04/13 12:34:15;;;;;;;15.00;11.87;;;22.80;95.10;;;;;;5095984;28;20471;-78
2022/04/13 12:36:44;;;;;;;15.10;10.77;;;22.80;95.10;;;;;;5094336;28;20466;-76
2022/04/13 12:39:13;;;;;;;11.07;9.87;;;22.80;95.00;;;;;;5094635;28;20436;-76
2022/04/13 12:41:41;;;;;;;12.07;10.87;;;22.90;95.30;;;;;;5094407;28;20786;-75
2022/04/13 12:44:10;;;;;;;10.70;9.10;;;22.90;95.00;;;;;;5092666;28;20450;-76
2022/04/13 12:46:38;;;;;;;10.83;9.23;;;22.90;94.90;;;;;;5092531;28;20468;-75
2022/04/13 12:49:08;;;;;;;11.93;8.70;;;22.90;94.80;;;;;;5094202;28;20447;-75